Time;durP1;ratioP1;P1;durP2;ratioP2;P2;SDS_P1;SDS_P2;PMS_P1;PMS_P2;Temp;Humidity;BMP_temperature;BMP_pressure;BME280_temperature;BME280_humidity;BME280_pressure;Samples;Min_cycle;Max_cycle;Signal;HPM_P1;HPM_P2
2023/04/01 00:04:28;;;;;;;;;;;18.30;48.10;;;;;;10330235;28;778;-75
2023/04/01 00:09:23;;;;;;;;;;;18.30;48.10;;;;;;10329438;28;766;-74
2023/04/01 00:14:19;;;;;;;;;;;18.20;48.00;;;;;;10329391;28;916;-74
2023/04/01 00:19:15;;;;;;;;;;;18.20;48.00;;;;;;10329487;28;1961;-75
2023/04/01 00:24:10;;;;;;;;;;;18.30;48.00;;;;;;10329489;28;1166;-75
2023/04/01 00:29:06;;;;;;;;;;;18.20;48.00;;;;;;10327972;28;871;-74
2023/04/01 00:34:02;;;;;;;;;;;18.20;48.00;;;;;;10328302;28;802;-75
2023/04/01 00:38:58;;;;;;;;;;;18.20;48.10;;;;;;10328833;28;1906;-74
2023/04/01 00:43:54;;;;;;;;;;;18.20;48.10;;;;;;10328040;28;939;-75
2023/04/01 00:48:49;;;;;;;;;;;18.20;48.10;;;;;;10327850;28;778;-75
2023/04/01 00:53:44;;;;;;;;;;;18.20;48.10;;;;;;10328183;28;784;-74
2023/04/01 00:58:40;;;;;;;;;;;18.20;48.00;;;;;;10327910;28;1973;-74
2023/04/01 01:03:35;;;;;;;;;;;18.20;48.00;;;;;;10326810;28;955;-74
2023/04/01 01:08:31;;;;;;;;;;;18.20;48.10;;;;;;10327038;28;879;-75
2023/04/01 01:13:26;;;;;;;;;;;18.20;48.00;;;;;;10327172;28;884;-74
2023/04/01 01:18:21;;;;;;;;;;;18.20;48.10;;;;;;10326578;28;1901;-75
2023/04/01 01:23:17;;;;;;;;;;;18.20;48.10;;;;;;10326497;28;862;-75
2023/04/01 01:28:13;;;;;;;;;;;18.20;48.10;;;;;;10326986;28;767;-75
2023/04/01 01:33:09;;;;;;;;;;;18.20;48.10;;;;;;10326791;28;790;-74
2023/04/01 01:38:04;;;;;;;;;;;18.20;48.00;;;;;;10326667;28;1902;-74
2023/04/01 01:43:00;;;;;;;;;;;18.20;48.10;;;;;;10325448;28;888;-75
2023/04/01 01:47:55;;;;;;;;;;;18.20;48.10;;;;;;10326256;28;803;-74
2023/04/01 01:52:50;;;;;;;;;;;18.20;48.10;;;;;;10325671;28;948;-74
2023/04/01 01:57:46;;;;;;;;;;;18.10;47.90;;;;;;10324637;28;1906;-74
2023/04/01 02:02:41;;;;;;;;;;;18.10;47.90;;;;;;10325454;28;902;-74
2023/04/01 02:07:36;;;;;;;;;;;18.10;48.00;;;;;;10326014;28;860;-74
2023/04/01 02:12:32;;;;;;;;;;;18.10;48.00;;;;;;10326069;28;845;-74
2023/04/01 02:17:28;;;;;;;;;;;18.10;48.00;;;;;;10324905;28;1965;-74
2023/04/01 02:22:23;;;;;;;;;;;18.10;48.00;;;;;;10325888;28;823;-74
2023/04/01 02:27:18;;;;;;;;;;;18.10;48.00;;;;;;10324452;28;859;-74
2023/04/01 02:32:14;;;;;;;;;;;18.10;48.00;;;;;;10325026;28;813;-75
2023/04/01 02:37:09;;;;;;;;;;;18.10;48.00;;;;;;10325928;28;1907;-75
2023/04/01 02:42:05;;;;;;;;;;;18.10;48.00;;;;;;10324733;28;854;-75
2023/04/01 02:47:00;;;;;;;;;;;18.10;48.00;;;;;;10324645;28;778;-75
2023/04/01 02:51:56;;;;;;;;;;;18.10;48.00;;;;;;10325576;28;913;-75
2023/04/01 02:56:51;;;;;;;;;;;18.10;48.00;;;;;;10329017;28;1932;-75
2023/04/01 03:01:46;;;;;;;;;;;18.10;48.00;;;;;;10332589;28;901;-74
2023/04/01 03:06:42;;;;;;;;;;;18.10;48.10;;;;;;10332439;28;769;-74
2023/04/01 03:11:37;;;;;;;;;;;18.10;48.00;;;;;;10331634;28;810;-75
2023/04/01 03:16:32;;;;;;;;;;;18.10;48.00;;;;;;10331401;28;1951;-75
2023/04/01 03:21:28;;;;;;;;;;;18.10;48.00;;;;;;10331322;28;793;-75
2023/04/01 03:26:23;;;;;;;;;;;18.10;48.00;;;;;;10331001;28;1004;-74
2023/04/01 03:31:19;;;;;;;;;;;18.10;48.00;;;;;;10331477;28;972;-74
2023/04/01 03:36:14;;;;;;;;;;;18.00;48.00;;;;;;10329993;28;1897;-75
2023/04/01 03:41:10;;;;;;;;;;;18.00;48.00;;;;;;10331185;28;923;-74
2023/04/01 03:46:05;;;;;;;;;;;18.00;48.00;;;;;;10331157;28;843;-75
2023/04/01 03:51:00;;;;;;;;;;;18.00;48.10;;;;;;10330224;28;889;-74
2023/04/01 03:55:56;;;;;;;;;;;18.00;48.00;;;;;;10330323;28;1910;-75
2023/04/01 04:00:51;;;;;;;;;;;18.00;47.90;;;;;;10330411;28;925;-75
2023/04/01 04:05:46;;;;;;;;;;;18.00;48.00;;;;;;10329228;28;875;-75
2023/04/01 04:10:42;;;;;;;;;;;18.00;48.00;;;;;;10330041;28;855;-74
2023/04/01 04:15:38;;;;;;;;;;;18.00;47.90;;;;;;10329291;28;1898;-75
2023/04/01 04:20:33;;;;;;;;;;;18.00;48.00;;;;;;10328532;28;940;-75
2023/04/01 04:25:28;;;;;;;;;;;18.00;48.00;;;;;;10329476;28;967;-75
2023/04/01 04:30:24;;;;;;;;;;;18.00;48.00;;;;;;10310735;28;959;-74
2023/04/01 04:35:19;;;;;;;;;;;18.00;48.00;;;;;;10328456;28;817;-74
2023/04/01 04:40:14;;;;;;;;;;;18.00;48.00;;;;;;10327545;28;1952;-74
2023/04/01 04:45:12;;;;;;;;;;;18.00;48.00;;;;;;10328067;28;798;-74
2023/04/01 04:50:07;;;;;;;;;;;18.10;48.00;;;;;;10327826;28;808;-75
2023/04/01 04:55:02;;;;;;;;;;;18.10;48.00;;;;;;10327581;28;1131;-75
2023/04/01 04:59:58;;;;;;;;;;;18.10;48.00;;;;;;10327355;28;1909;-75
2023/04/01 05:04:53;;;;;;;;;;;18.10;47.90;;;;;;10327747;28;853;-74
2023/04/01 05:09:49;;;;;;;;;;;18.00;47.90;;;;;;10327757;28;814;-74
2023/04/01 05:14:44;;;;;;;;;;;18.10;47.90;;;;;;10326893;28;806;-74
2023/04/01 05:19:40;;;;;;;;;;;18.10;48.00;;;;;;10325890;28;1961;-74
2023/04/01 05:24:35;;;;;;;;;;;18.10;48.00;;;;;;10327085;28;929;-75
2023/04/01 05:29:31;;;;;;;;;;;18.10;48.00;;;;;;10326291;28;933;-76
2023/04/01 05:34:26;;;;;;;;;;;18.10;47.90;;;;;;10326174;28;1094;-75
2023/04/01 05:39:21;;;;;;;;;;;18.10;47.90;;;;;;10326065;28;1902;-75
2023/04/01 05:44:17;;;;;;;;;;;18.00;48.00;;;;;;10326568;28;774;-77
2023/04/01 05:49:12;;;;;;;;;;;18.10;47.90;;;;;;10325194;28;975;-77
2023/04/01 05:54:07;;;;;;;;;;;18.10;48.00;;;;;;10325476;28;1024;-75
2023/04/01 05:59:03;;;;;;;;;;;18.10;47.90;;;;;;10326110;28;1914;-75
2023/04/01 06:03:58;;;;;;;;;;;18.10;47.90;;;;;;10325908;28;1055;-75
2023/04/01 06:08:53;;;;;;;;;;;18.10;47.90;;;;;;10325421;28;936;-75
2023/04/01 06:13:49;;;;;;;;;;;18.10;47.90;;;;;;10325385;28;916;-70
2023/04/01 06:18:44;;;;;;;;;;;18.10;48.60;;;;;;10325406;28;1902;-75
2023/04/01 06:23:40;;;;;;;;;;;18.20;48.70;;;;;;10325154;28;844;-69
2023/04/01 06:28:35;;;;;;;;;;;18.20;48.90;;;;;;10326076;28;1002;-66
2023/04/01 06:33:31;;;;;;;;;;;18.20;49.10;;;;;;10333224;28;782;-66
2023/04/01 06:38:26;;;;;;;;;;;18.20;49.20;;;;;;10332930;28;1967;-75
2023/04/01 06:43:22;;;;;;;;;;;18.20;49.40;;;;;;10333030;28;758;-80
2023/04/01 06:48:17;;;;;;;;;;;18.10;49.40;;;;;;10333186;28;891;-77
2023/04/01 06:53:12;;;;;;;;;;;18.10;49.40;;;;;;10332446;28;774;-77
2023/04/01 06:58:08;;;;;;;;;;;18.10;49.10;;;;;;10331984;28;1909;-77
2023/04/01 07:03:03;;;;;;;;;;;18.10;49.10;;;;;;10331962;28;988;-75
2023/04/01 07:07:59;;;;;;;;;;;18.10;49.00;;;;;;10331815;28;837;-75
2023/04/01 07:12:54;;;;;;;;;;;18.10;49.00;;;;;;10331586;28;890;-75
2023/04/01 07:17:50;;;;;;;;;;;18.10;48.90;;;;;;10331369;28;1936;-75
2023/04/01 07:22:45;;;;;;;;;;;18.10;48.80;;;;;;10331263;28;901;-78
2023/04/01 07:27:41;;;;;;;;;;;18.10;48.80;;;;;;10331015;28;843;-75
2023/04/01 07:32:36;;;;;;;;;;;18.10;48.80;;;;;;10330885;28;880;-75
2023/04/01 07:37:32;;;;;;;;;;;18.10;48.70;;;;;;10330236;28;1965;-75
2023/04/01 07:42:27;;;;;;;;;;;18.10;48.70;;;;;;10329748;28;931;-75
2023/04/01 07:47:23;;;;;;;;;;;18.00;48.70;;;;;;10330453;28;857;-75
2023/04/01 07:52:18;;;;;;;;;;;18.10;48.60;;;;;;10330789;28;839;-75
2023/04/01 07:57:13;;;;;;;;;;;18.10;48.60;;;;;;10330711;28;2219;-75
2023/04/01 08:02:09;;;;;;;;;;;18.10;48.60;;;;;;10330703;28;786;-75
2023/04/01 08:07:05;;;;;;;;;;;18.10;48.60;;;;;;10330488;28;872;-75
2023/04/01 08:12:01;;;;;;;;;;;18.10;48.50;;;;;;10329421;28;973;-75
2023/04/01 08:16:56;;;;;;;;;;;18.00;48.70;;;;;;10329199;28;1973;-75
2023/04/01 08:21:52;;;;;;;;;;;18.10;48.60;;;;;;10329705;28;907;-75
2023/04/01 08:26:47;;;;;;;;;;;18.10;48.60;;;;;;10328805;28;886;-75
2023/04/01 08:31:43;;;;;;;;;;;18.10;48.50;;;;;;10328621;28;944;-75
2023/04/01 08:36:38;;;;;;;;;;;18.00;48.60;;;;;;10329146;28;1897;-75
2023/04/01 08:41:33;;;;;;;;;;;18.10;48.60;;;;;;10327671;28;957;-74
2023/04/01 08:46:29;;;;;;;;;;;18.10;48.60;;;;;;10328290;28;793;-75
2023/04/01 08:51:24;;;;;;;;;;;18.00;48.60;;;;;;10327799;28;845;-75
2023/04/01 08:56:20;;;;;;;;;;;18.10;48.60;;;;;;10327403;28;1992;-75
2023/04/01 09:01:15;;;;;;;;;;;18.10;48.60;;;;;;10328000;28;810;-75
2023/04/01 09:06:11;;;;;;;;;;;18.00;48.70;;;;;;10326720;28;822;-74
2023/04/01 09:11:06;;;;;;;;;;;18.00;48.70;;;;;;10327077;28;783;-74
2023/04/01 09:16:01;;;;;;;;;;;18.00;48.70;;;;;;10326342;28;1897;-74
2023/04/01 09:20:57;;;;;;;;;;;18.10;48.70;;;;;;10327145;28;851;-75
2023/04/01 09:25:52;;;;;;;;;;;18.00;48.70;;;;;;10327610;28;1027;-75
2023/04/01 09:30:48;;;;;;;;;;;18.00;48.60;;;;;;10326377;28;789;-75
2023/04/01 09:35:43;;;;;;;;;;;18.00;48.70;;;;;;10325520;28;1902;-75
2023/04/01 09:40:38;;;;;;;;;;;18.00;48.60;;;;;;10326681;28;904;-72
2023/04/01 09:45:34;;;;;;;;;;;18.00;48.70;;;;;;10326277;28;778;-72
2023/04/01 09:50:29;;;;;;;;;;;18.00;48.70;;;;;;10325262;28;909;-75
2023/04/01 09:55:24;;;;;;;;;;;18.00;48.80;;;;;;10325858;28;1124;-75
2023/04/01 10:00:21;;;;;;;;;;;18.00;48.80;;;;;;10326208;28;1967;-75
2023/04/01 10:05:16;;;;;;;;;;;18.00;48.80;;;;;;10325252;28;845;-76
2023/04/01 10:10:11;;;;;;;;;;;18.00;48.80;;;;;;10325991;28;822;-76
2023/04/01 10:15:07;;;;;;;;;;;18.00;48.70;;;;;;10326279;28;922;-76
2023/04/01 10:20:03;;;;;;;;;;;18.10;48.80;;;;;;10325210;28;1901;-76
2023/04/01 10:24:58;;;;;;;;;;;18.00;48.70;;;;;;10325165;28;802;-75
2023/04/01 10:29:53;;;;;;;;;;;18.00;48.80;;;;;;10325762;28;924;-75
2023/04/01 10:34:49;;;;;;;;;;;18.00;48.90;;;;;;10324969;28;867;-75
2023/04/01 10:39:44;;;;;;;;;;;18.00;48.80;;;;;;10325023;28;1965;-76
2023/04/01 10:44:40;;;;;;;;;;;18.00;48.80;;;;;;10324800;28;782;-75
2023/04/01 10:49:35;;;;;;;;;;;18.00;48.90;;;;;;10325219;28;907;-74
2023/04/01 10:54:30;;;;;;;;;;;18.00;48.90;;;;;;10324377;28;1215;-74
2023/04/01 10:59:26;;;;;;;;;;;18.00;48.80;;;;;;10324411;28;1918;-75
2023/04/01 11:04:21;;;;;;;;;;;18.00;48.90;;;;;;10324338;28;901;-75
2023/04/01 11:09:16;;;;;;;;;;;18.00;48.90;;;;;;10324236;28;962;-74
2023/04/01 11:14:12;;;;;;;;;;;18.00;48.90;;;;;;10324201;28;882;-75
2023/04/01 11:19:07;;;;;;;;;;;18.00;48.80;;;;;;10329666;28;1909;-76
2023/04/01 11:24:02;;;;;;;;;;;18.00;48.90;;;;;;10332196;28;900;-75
2023/04/01 11:28:58;;;;;;;;;;;18.00;49.10;;;;;;10331732;28;889;-75
2023/04/01 11:33:53;;;;;;;;;;;18.00;48.90;;;;;;10330912;28;869;-75
2023/04/01 11:38:50;;;;;;;;;;;18.00;49.00;;;;;;10330142;28;1902;-75
2023/04/01 11:43:46;;;;;;;;;;;18.00;48.90;;;;;;10330592;28;877;-75
2023/04/01 11:48:41;;;;;;;;;;;18.00;48.90;;;;;;10330963;28;899;-76
2023/04/01 11:53:36;;;;;;;;;;;18.00;49.50;;;;;;10329865;28;878;-74
2023/04/01 11:58:32;;;;;;;;;;;18.00;49.00;;;;;;10329033;28;1979;-75
2023/04/01 12:03:27;;;;;;;;;;;18.00;48.90;;;;;;10329668;28;766;-74
2023/04/01 12:08:23;;;;;;;;;;;18.00;49.10;;;;;;10330049;28;872;-75
2023/04/01 12:13:18;;;;;;;;;;;18.00;49.30;;;;;;10329429;28;905;-75
2023/04/01 12:18:13;;;;;;;;;;;18.00;49.10;;;;;;10328952;28;1971;-74
2023/04/01 12:23:09;;;;;;;;;;;18.00;49.20;;;;;;10329846;28;1418;-76
2023/04/01 12:28:04;;;;;;;;;;;18.00;49.10;;;;;;10346552;28;1382;-75
2023/04/01 12:33:00;;;;;;;;;;;18.00;49.10;;;;;;10334854;28;1450;-79
2023/04/01 12:37:55;;;;;;;;;;;18.00;49.10;;;;;;10337122;28;1910;-74
2023/04/01 12:42:50;;;;;;;;;;;18.00;49.10;;;;;;10335487;28;1483;-76
2023/04/01 12:47:46;;;;;;;;;;;18.00;49.10;;;;;;10347002;28;1730;-77
2023/04/01 12:52:41;;;;;;;;;;;18.00;49.20;;;;;;10332388;28;1744;-78
2023/04/01 12:57:37;;;;;;;;;;;18.00;49.10;;;;;;10328112;28;1906;-75
2023/04/01 13:02:32;;;;;;;;;;;18.00;49.20;;;;;;10342904;28;1390;-75
2023/04/01 13:07:28;;;;;;;;;;;18.00;49.10;;;;;;10334512;28;1541;-75
2023/04/01 13:12:23;;;;;;;;;;;18.00;49.10;;;;;;10353730;28;1521;-74
2023/04/01 13:17:18;;;;;;;;;;;18.00;49.10;;;;;;10354020;28;1967;-81
2023/04/01 13:22:14;;;;;;;;;;;18.00;49.10;;;;;;10343914;28;1798;-78
2023/04/01 13:27:09;;;;;;;;;;;18.00;49.30;;;;;;10337516;28;1531;-77
2023/04/01 13:32:04;;;;;;;;;;;18.00;49.10;;;;;;10332981;28;1386;-77
2023/04/01 13:37:01;;;;;;;;;;;18.00;49.20;;;;;;10333742;28;1977;-77
2023/04/01 13:41:56;;;;;;;;;;;18.00;49.20;;;;;;10354368;28;1601;-77
2023/04/01 13:46:52;;;;;;;;;;;18.10;49.20;;;;;;10326430;28;1658;-76
2023/04/01 13:51:47;;;;;;;;;;;18.00;49.70;;;;;;10346190;28;1414;-77
2023/04/01 13:56:42;;;;;;;;;;;18.00;49.20;;;;;;10340763;28;2021;-76
2023/04/01 14:01:38;;;;;;;;;;;18.00;49.20;;;;;;10360019;28;1414;-77
2023/04/01 14:06:34;;;;;;;;;;;18.00;49.20;;;;;;10362190;28;1507;-77
2023/04/01 14:11:30;;;;;;;;;;;18.00;49.20;;;;;;10345974;28;1475;-72
2023/04/01 14:16:25;;;;;;;;;;;18.00;49.30;;;;;;10341980;28;1986;-75
2023/04/01 14:21:20;;;;;;;;;;;18.00;49.20;;;;;;10332050;28;1546;-75
2023/04/01 14:26:16;;;;;;;;;;;18.00;49.20;;;;;;10338503;28;1556;-75
2023/04/01 14:31:11;;;;;;;;;;;18.00;49.20;;;;;;10348859;28;1510;-74
2023/04/01 14:36:07;;;;;;;;;;;18.00;49.20;;;;;;10360602;28;1902;-74
2023/04/01 14:41:02;;;;;;;;;;;18.10;49.20;;;;;;10346662;28;1493;-75
2023/04/01 14:45:57;;;;;;;;;;;18.00;49.20;;;;;;10351960;28;1415;-74
2023/04/01 14:50:53;;;;;;;;;;;18.00;49.30;;;;;;10328441;28;1419;-75
2023/04/01 14:55:48;;;;;;;;;;;18.00;49.30;;;;;;10349082;28;1383;-75
2023/04/01 15:00:43;;;;;;;;;;;18.00;49.20;;;;;;10344967;28;1964;-77
2023/04/01 15:05:39;;;;;;;;;;;18.00;49.20;;;;;;10331979;28;1572;-76
2023/04/01 15:10:34;;;;;;;;;;;18.00;49.40;;;;;;10331541;28;845;-75
2023/04/01 15:15:30;;;;;;;;;;;18.00;49.40;;;;;;10331280;28;921;-76
2023/04/01 15:20:25;;;;;;;;;;;18.00;49.30;;;;;;10331492;28;1879;-78
2023/04/01 15:25:20;;;;;;;;;;;18.00;49.30;;;;;;10330913;28;925;-77
2023/04/01 15:30:16;;;;;;;;;;;18.00;49.20;;;;;;10331171;28;931;-77
2023/04/01 15:35:11;;;;;;;;;;;18.00;49.20;;;;;;10331568;28;892;-77
2023/04/01 15:40:06;;;;;;;;;;;18.00;49.20;;;;;;10330883;28;1973;-77
2023/04/01 15:45:02;;;;;;;;;;;18.00;49.30;;;;;;10330832;28;773;-77
2023/04/01 15:49:58;;;;;;;;;;;18.00;49.20;;;;;;10331079;28;817;-74
2023/04/01 15:54:54;;;;;;;;;;;18.00;49.10;;;;;;10330308;28;1235;-77
2023/04/01 15:59:49;;;;;;;;;;;18.00;49.20;;;;;;10330239;28;1902;-77
2023/04/01 16:04:45;;;;;;;;;;;18.00;49.20;;;;;;10329375;28;809;-77
2023/04/01 16:09:40;;;;;;;;;;;18.00;49.20;;;;;;10330288;28;864;-77
2023/04/01 16:14:36;;;;;;;;;;;18.00;49.40;;;;;;10329970;28;916;-77
2023/04/01 16:19:31;;;;;;;;;;;18.00;49.40;;;;;;10329963;28;1902;-77
2023/04/01 16:24:26;;;;;;;;;;;18.00;49.40;;;;;;10329308;28;917;-76
2023/04/01 16:29:23;;;;;;;;;;;18.00;49.40;;;;;;10328931;28;766;-77
2023/04/01 16:34:18;;;;;;;;;;;18.00;50.00;;;;;;10328747;28;863;-77
2023/04/01 16:39:13;;;;;;;;;;;18.00;49.30;;;;;;10328493;28;1969;-77
2023/04/01 16:44:09;;;;;;;;;;;18.00;49.30;;;;;;10328894;28;845;-77
2023/04/01 16:49:05;;;;;;;;;;;18.00;49.30;;;;;;10328185;28;770;-77
2023/04/01 16:54:02;;;;;;;;;;;18.00;49.30;;;;;;10327803;28;990;-79
2023/04/01 16:58:58;;;;;;;;;;;18.00;49.30;;;;;;10326889;28;1906;-78
2023/04/01 17:03:53;;;;;;;;;;;18.00;49.30;;;;;;10327444;28;871;-78
2023/04/01 17:08:49;;;;;;;;;;;18.00;49.40;;;;;;10327936;28;893;-78
2023/04/01 17:13:44;;;;;;;;;;;18.00;49.20;;;;;;10326148;28;787;-78
2023/04/01 17:18:39;;;;;;;;;;;18.00;49.20;;;;;;10326857;28;1914;-77
2023/04/01 17:23:35;;;;;;;;;;;18.00;49.30;;;;;;10326808;28;780;-78
2023/04/01 17:28:30;;;;;;;;;;;18.00;49.30;;;;;;10326629;28;774;-73
2023/04/01 17:33:26;;;;;;;;;;;18.00;49.30;;;;;;10326425;28;811;-78
2023/04/01 17:38:21;;;;;;;;;;;18.00;49.80;;;;;;10326463;28;1897;-78
2023/04/01 17:43:17;;;;;;;;;;;18.00;49.20;;;;;;10326137;28;918;-77
2023/04/01 17:48:12;;;;;;;;;;;18.00;49.20;;;;;;10326685;28;798;-78
2023/04/01 17:53:07;;;;;;;;;;;18.00;49.10;;;;;;10325280;28;834;-78
2023/04/01 17:58:03;;;;;;;;;;;18.00;49.20;;;;;;10326121;28;1906;-78
2023/04/01 18:02:58;;;;;;;;;;;18.00;49.20;;;;;;10326264;28;837;-78
2023/04/01 18:07:53;;;;;;;;;;;18.00;49.20;;;;;;10325556;28;825;-78
2023/04/01 18:12:49;;;;;;;;;;;18.00;49.10;;;;;;10325421;28;901;-76
2023/04/01 18:17:44;;;;;;;;;;;18.00;49.20;;;;;;10324677;28;1956;-78
2023/04/01 18:22:40;;;;;;;;;;;18.00;49.20;;;;;;10325245;28;957;-78
2023/04/01 18:27:35;;;;;;;;;;;18.10;49.10;;;;;;10332181;28;933;-78
2023/04/01 18:32:30;;;;;;;;;;;18.10;49.10;;;;;;10333444;28;890;-78
2023/04/01 18:37:26;;;;;;;;;;;18.10;49.10;;;;;;10333166;28;1894;-78
2023/04/01 18:42:21;;;;;;;;;;;18.00;49.10;;;;;;10333038;28;888;-78
2023/04/01 18:47:16;;;;;;;;;;;18.10;49.10;;;;;;10333058;28;841;-78
2023/04/01 18:52:12;;;;;;;;;;;18.00;49.10;;;;;;10332691;28;806;-78
2023/04/01 18:57:07;;;;;;;;;;;18.00;49.20;;;;;;10331990;28;1906;-78
2023/04/01 19:02:03;;;;;;;;;;;18.00;49.10;;;;;;10332267;28;943;-79
2023/04/01 19:07:00;;;;;;;;;;;18.10;49.10;;;;;;10332659;28;889;-78
2023/04/01 19:11:55;;;;;;;;;;;18.00;49.10;;;;;;10332486;28;982;-78
2023/04/01 19:16:51;;;;;;;;;;;18.00;49.10;;;;;;10331699;28;1961;-78
2023/04/01 19:21:46;;;;;;;;;;;18.00;49.10;;;;;;10314469;28;1330;-78
2023/04/01 19:26:42;;;;;;;;;;;18.00;49.20;;;;;;10331683;28;914;-78
2023/04/01 19:31:37;;;;;;;;;;;18.00;49.10;;;;;;10331810;28;773;-78
2023/04/01 19:36:32;;;;;;;;;;;18.10;49.20;;;;;;10330439;28;1902;-78
2023/04/01 19:41:28;;;;;;;;;;;18.10;49.10;;;;;;10331504;28;850;-78
2023/04/01 19:46:24;;;;;;;;;;;18.00;49.10;;;;;;10330076;28;1179;-78
2023/04/01 19:51:20;;;;;;;;;;;18.10;49.00;;;;;;10330519;28;869;-78
2023/04/01 19:56:15;;;;;;;;;;;18.10;49.10;;;;;;10330476;28;1967;-79
2023/04/01 20:01:10;;;;;;;;;;;18.00;49.10;;;;;;10330686;28;789;-78
2023/04/01 20:06:06;;;;;;;;;;;18.00;49.10;;;;;;10329892;28;899;-78
2023/04/01 20:11:01;;;;;;;;;;;17.90;49.10;;;;;;10311724;28;864;-78
2023/04/01 20:15:57;;;;;;;;;;;17.90;49.10;;;;;;10328957;28;837;-78
2023/04/01 20:20:52;;;;;;;;;;;17.90;49.10;;;;;;10329838;28;1967;-72
2023/04/01 20:25:47;;;;;;;;;;;17.90;49.10;;;;;;10329616;28;845;-75
2023/04/01 20:30:43;;;;;;;;;;;18.00;49.40;;;;;;10329544;28;789;-74
2023/04/01 20:35:38;;;;;;;;;;;17.90;49.40;;;;;;10328754;28;759;-75
2023/04/01 20:40:34;;;;;;;;;;;17.90;49.30;;;;;;10328425;28;1952;-74
2023/04/01 20:45:29;;;;;;;;;;;17.90;49.20;;;;;;10328909;28;836;-74
2023/04/01 20:50:25;;;;;;;;;;;17.90;49.20;;;;;;10327826;28;894;-74
2023/04/01 20:55:20;;;;;;;;;;;18.00;49.20;;;;;;10327974;28;1180;-75
2023/04/01 21:00:15;;;;;;;;;;;18.00;49.20;;;;;;10327633;28;1913;-74
2023/04/01 21:05:11;;;;;;;;;;;18.00;49.10;;;;;;10327576;28;932;-74
2023/04/01 21:10:06;;;;;;;;;;;17.90;49.10;;;;;;10327692;28;870;-74
2023/04/01 21:15:02;;;;;;;;;;;17.90;49.10;;;;;;10327187;28;872;-74
2023/04/01 21:19:57;;;;;;;;;;;17.90;49.10;;;;;;10326836;28;1901;-74
2023/04/01 21:24:52;;;;;;;;;;;17.90;49.10;;;;;;10327429;28;1024;-74
2023/04/01 21:29:48;;;;;;;;;;;17.90;49.00;;;;;;10326480;28;810;-74
2023/04/01 21:34:44;;;;;;;;;;;17.90;49.00;;;;;;10326500;28;908;-75
2023/04/01 21:39:39;;;;;;;;;;;17.90;49.10;;;;;;10325576;28;1886;-74
2023/04/01 21:44:35;;;;;;;;;;;17.90;49.00;;;;;;10326185;28;825;-74
2023/04/01 21:49:30;;;;;;;;;;;17.90;49.00;;;;;;10326013;28;781;-75
2023/04/01 21:54:26;;;;;;;;;;;17.90;49.00;;;;;;10326222;28;1505;-74
2023/04/01 21:59:21;;;;;;;;;;;18.00;49.10;;;;;;10325916;28;1975;-74
2023/04/01 22:04:16;;;;;;;;;;;17.90;49.00;;;;;;10325665;28;873;-75
2023/04/01 22:09:12;;;;;;;;;;;17.90;49.00;;;;;;10325559;28;847;-74
2023/04/01 22:14:07;;;;;;;;;;;17.90;49.10;;;;;;10325415;28;867;-74
2023/04/01 22:19:03;;;;;;;;;;;17.90;49.20;;;;;;10325256;28;1923;-75
2023/04/01 22:23:58;;;;;;;;;;;18.00;49.10;;;;;;10324658;28;810;-75
2023/04/01 22:28:53;;;;;;;;;;;18.00;49.10;;;;;;10325547;28;939;-75
2023/04/01 22:33:49;;;;;;;;;;;17.90;49.10;;;;;;10325037;28;882;-74
2023/04/01 22:38:44;;;;;;;;;;;17.90;49.10;;;;;;10324838;28;1961;-74
2023/04/01 22:43:40;;;;;;;;;;;17.90;49.10;;;;;;10324353;28;999;-74
2023/04/01 22:48:38;;;;;;;;;;;17.90;49.20;;;;;;10324172;28;876;-75
2023/04/01 22:53:33;;;;;;;;;;;17.90;49.10;;;;;;10324714;28;846;-74
2023/04/01 22:58:29;;;;;;;;;;;17.90;49.20;;;;;;10325044;28;1906;-74
2023/04/01 23:03:24;;;;;;;;;;;17.90;49.20;;;;;;10324480;28;847;-74
2023/04/01 23:08:20;;;;;;;;;;;17.90;49.10;;;;;;10324479;28;757;-74
2023/04/01 23:13:15;;;;;;;;;;;18.00;49.20;;;;;;10329456;28;877;-75
2023/04/01 23:18:12;;;;;;;;;;;17.90;49.10;;;;;;10332281;28;1955;-74
2023/04/01 23:23:07;;;;;;;;;;;17.90;49.20;;;;;;10332809;28;860;-75
2023/04/01 23:28:03;;;;;;;;;;;17.90;49.20;;;;;;10331306;28;772;-75
2023/04/01 23:32:58;;;;;;;;;;;17.90;49.20;;;;;;10331329;28;864;-75
2023/04/01 23:37:54;;;;;;;;;;;17.90;49.30;;;;;;10330359;28;1906;-75
2023/04/01 23:42:49;;;;;;;;;;;17.90;49.20;;;;;;10331417;28;822;-74
2023/04/01 23:47:44;;;;;;;;;;;17.90;49.10;;;;;;10330842;28;798;-74
2023/04/01 23:52:40;;;;;;;;;;;17.90;49.20;;;;;;10331284;28;774;-75
2023/04/01 23:57:35;;;;;;;;;;;17.90;49.20;;;;;;10329527;28;1977;-75
